Time;durP1;ratioP1;P1;durP2;ratioP2;P2;SDS_P1;SDS_P2;PMS_P1;PMS_P2;Temp;Humidity;BMP_temperature;BMP_pressure;BME280_temperature;BME280_humidity;BME280_pressure;Samples;Min_cycle;Max_cycle;Signal;HPM_P1;HPM_P2
2022/04/02 00:02:21;;;;;;;7.47;3.77;;;;;;;4.21;75.50;99742.97;5111355;28;20290;-64
2022/04/02 00:04:50;;;;;;;7.43;3.53;;;;;;;4.39;74.98;99742.28;5111194;28;20605;-64
2022/04/02 00:07:17;;;;;;;6.10;3.47;;;;;;;4.42;74.49;99741.19;5111985;28;20656;-63
2022/04/02 00:09:47;;;;;;;5.93;3.27;;;;;;;4.40;74.32;99729.97;5111006;28;20210;-64
2022/04/02 00:12:15;;;;;;;6.03;3.80;;;;;;;4.45;74.47;99736.53;5110780;28;20266;-63
2022/04/02 00:14:46;;;;;;;6.17;3.47;;;;;;;4.41;74.19;99739.50;5111900;28;20561;-64
2022/04/02 00:17:14;;;;;;;5.40;3.33;;;;;;;4.42;74.38;99739.41;5111582;28;20298;-63
2022/04/02 00:19:42;;;;;;;6.67;4.33;;;;;;;4.38;74.46;99739.78;5114481;27;20204;-64
2022/04/02 00:22:10;;;;;;;5.07;3.20;;;;;;;4.40;74.60;99745.72;5111079;28;20290;-65
2022/04/02 00:24:38;;;;;;;4.93;3.60;;;;;;;4.31;74.70;99744.69;5111335;28;20213;-63
2022/04/02 00:27:06;;;;;;;5.10;3.07;;;;;;;4.33;74.85;99744.56;5111439;28;20230;-64
2022/04/02 00:29:34;;;;;;;8.63;3.80;;;;;;;4.25;74.99;99736.50;5092797;28;20623;-64
2022/04/02 00:32:03;;;;;;;10.07;3.17;;;;;;;4.13;76.19;99733.09;5090324;28;20270;-63
2022/04/02 00:34:31;;;;;;;7.50;3.80;;;;;;;4.22;75.96;99734.97;5090915;28;20204;-64
2022/04/02 00:36:58;;;;;;;6.63;3.40;;;;;;;4.22;75.41;99740.22;5090605;28;20229;-63
2022/04/02 00:39:26;;;;;;;5.33;3.10;;;;;;;4.39;74.96;99749.34;5094646;28;20211;-64
2022/04/02 00:41:54;;;;;;;8.87;3.47;;;;;;;4.43;74.93;99748.94;5094738;28;20292;-64
2022/04/02 00:44:21;;;;;;;6.00;3.30;;;;;;;4.43;75.01;99745.47;5109754;28;20199;-64
2022/04/02 00:46:49;;;;;;;5.83;3.43;;;;;;;4.41;74.49;99750.03;5092287;28;20204;-64
2022/04/02 00:49:18;;;;;;;5.13;3.13;;;;;;;4.38;74.32;99745.03;5089978;28;20591;-63
2022/04/02 00:51:46;;;;;;;5.37;2.93;;;;;;;3.99;76.10;99749.94;5089860;28;20208;-63
2022/04/02 00:54:16;;;;;;;7.23;3.37;;;;;;;4.34;74.75;99754.09;5090294;28;20209;-64
2022/04/02 00:56:44;;;;;;;5.93;3.27;;;;;;;4.37;74.40;99744.22;5090046;28;20210;-64
2022/04/02 00:59:17;;;;;;;5.30;3.10;;;;;;;4.21;75.04;99748.22;5107989;27;20203;-64
2022/04/02 01:01:50;;;;;;;5.60;3.10;;;;;;;4.30;75.13;99744.84;5110816;28;20227;-64
2022/04/02 01:04:28;;;;;;;5.10;2.83;;;;;;;4.31;74.65;99746.50;5110132;28;20192;-64
2022/04/02 01:06:56;;;;;;;5.77;3.30;;;;;;;4.34;74.33;99738.38;5117550;27;20576;-64
2022/04/02 01:09:30;;;;;;;5.37;2.63;;;;;;;4.28;74.60;99741.50;5094766;28;20210;-65
2022/04/02 01:12:02;;;;;;;7.57;3.20;;;;;;;4.37;74.70;99740.75;5090441;28;20680;-65
2022/04/02 01:14:37;;;;;;;5.63;3.10;;;;;;;4.41;74.59;99744.78;5090075;28;20304;-64
2022/04/02 01:17:05;;;;;;;6.03;3.00;;;;;;;4.32;74.43;99742.91;5096965;28;20680;-64
2022/04/02 01:19:35;;;;;;;4.93;2.57;;;;;;;3.88;75.37;99749.97;5109147;28;20257;-64
2022/04/02 01:22:04;;;;;;;5.17;2.70;;;;;;;3.84;76.71;99751.19;5109786;28;20202;-64
2022/04/02 01:24:32;;;;;;;5.37;2.67;;;;;;;4.11;75.45;99751.59;5110157;28;20647;-64
2022/04/02 01:27:00;;;;;;;4.80;2.63;;;;;;;4.30;74.67;99747.47;5109569;28;20299;-65
2022/04/02 01:29:32;;;;;;;6.17;2.70;;;;;;;4.37;74.02;99746.84;5092871;28;20231;-64
2022/04/02 01:32:01;;;;;;;8.50;2.67;;;;;;;4.38;73.62;99750.28;5089716;28;20295;-64
2022/04/02 01:34:31;;;;;;;4.07;2.20;;;;;;;4.34;73.88;99759.38;5089727;28;20216;-64
2022/04/02 01:36:59;;;;;;;5.77;2.53;;;;;;;4.37;73.47;99753.88;5096793;28;20391;-64
2022/04/02 01:39:29;;;;;;;5.93;2.47;;;;;;;4.20;73.73;99767.53;5101168;28;20256;-64
2022/04/02 01:42:05;;;;;;;6.10;2.30;;;;;;;4.09;74.27;99765.78;5109463;28;20311;-65
2022/04/02 01:44:35;;;;;;;4.60;2.53;;;;;;;4.24;74.01;99775.03;5110138;28;20301;-63
2022/04/02 01:47:04;;;;;;;6.00;2.30;;;;;;;4.21;73.56;99767.41;5111225;27;20278;-64
2022/04/02 01:49:31;;;;;;;3.93;2.20;;;;;;;4.24;73.67;99767.16;5112645;27;20210;-65
2022/04/02 01:51:59;;;;;;;3.63;2.20;;;;;;;4.19;73.26;99771.13;5110516;28;20301;-63
2022/04/02 01:54:28;;;;;;;5.87;2.30;;;;;;;4.25;73.64;99775.84;5110017;28;20318;-64
2022/04/02 01:56:57;;;;;;;4.53;2.17;;;;;;;4.14;73.45;99769.69;5110688;28;20302;-64
2022/04/02 01:59:25;;;;;;;4.80;2.30;;;;;;;4.21;73.36;99780.53;5109110;28;20207;-64
2022/04/02 02:01:53;;;;;;;5.47;2.47;;;;;;;4.06;74.05;99776.50;5109870;28;20208;-64
2022/04/02 02:04:20;;;;;;;7.27;2.30;;;;;;;4.15;73.50;99779.22;5110308;28;20548;-63
2022/04/02 02:06:50;;;;;;;3.53;2.10;;;;;;;4.19;73.37;99779.81;5109701;28;20668;-64
2022/04/02 02:09:19;;;;;;;5.30;2.07;;;;;;;3.97;73.98;99783.31;5108990;28;20231;-65
2022/04/02 02:11:48;;;;;;;6.30;2.27;;;;;;;3.61;75.04;99781.00;5113299;28;20197;-63
2022/04/02 02:14:16;;;;;;;4.70;2.07;;;;;;;3.57;74.67;99779.59;5111335;28;20445;-64
2022/04/02 02:16:44;;;;;;;4.03;1.90;;;;;;;3.93;73.65;99788.97;5113944;28;20847;-64
2022/04/02 02:19:16;;;;;;;5.43;2.53;;;;;;;4.09;73.10;99784.97;5113366;28;20216;-64
2022/04/02 02:21:44;;;;;;;6.03;2.23;;;;;;;3.96;73.93;99796.59;5114209;28;20436;-64
2022/04/02 02:24:11;;;;;;;4.60;2.27;;;;;;;3.47;75.59;99789.13;5114306;28;20286;-64
2022/04/02 02:26:39;;;;;;;8.07;2.20;;;;;;;3.91;73.91;99796.09;5114023;28;20237;-64
2022/04/02 02:29:08;;;;;;;8.20;2.60;;;;;;;3.82;73.76;99794.22;5099242;28;20203;-64
2022/04/02 02:31:36;;;;;;;3.37;1.70;;;;;;;3.83;74.18;99799.34;5094834;28;20575;-64
2022/04/02 02:36:49;;;;;;;3.87;2.03;;;;;;;4.14;72.72;99795.94;5113129;28;20230;-64
2022/04/02 02:39:17;;;;;;;4.33;2.00;;;;;;;4.11;73.03;99795.34;5112618;28;20236;-63
2022/04/02 02:41:44;;;;;;;4.53;2.30;;;;;;;4.00;72.34;99792.75;5113239;28;20562;-64
2022/04/02 02:44:13;;;;;;;3.47;2.10;;;;;;;3.63;74.63;99800.06;5107351;27;20195;-64
2022/04/02 02:46:41;;;;;;;4.43;2.27;;;;;;;3.92;73.91;99795.16;5113012;28;20235;-64
2022/04/02 02:49:09;;;;;;;3.63;2.00;;;;;;;3.84;73.83;99794.94;5112758;28;20203;-64
2022/04/02 02:51:37;;;;;;;6.97;2.93;;;;;;;4.05;73.33;99801.91;5113090;28;20309;-64
2022/04/02 02:54:04;;;;;;;4.50;2.10;;;;;;;4.09;73.19;99798.09;5113098;28;20328;-64
2022/04/02 02:56:32;;;;;;;4.63;2.10;;;;;;;4.00;73.40;99804.09;5113456;28;20691;-64
2022/04/02 02:59:00;;;;;;;4.67;2.10;;;;;;;3.93;73.52;99810.78;5112020;28;20578;-63
2022/04/02 03:01:29;;;;;;;3.13;1.80;;;;;;;4.00;73.46;99808.50;5112681;28;20202;-64
2022/04/02 03:03:56;;;;;;;4.57;2.50;;;;;;;4.02;73.10;99810.03;5092805;28;20199;-64
2022/04/02 03:06:24;;;;;;;5.50;2.50;;;;;;;4.06;72.97;99815.88;5096830;27;20215;-64
2022/04/02 03:08:52;;;;;;;4.23;2.17;;;;;;;3.96;73.81;99828.06;5113309;27;20209;-63
2022/04/02 03:11:22;;;;;;;7.83;2.40;;;;;;;3.98;73.29;99821.72;5112264;28;20242;-63
2022/04/02 03:13:54;;;;;;;3.07;1.77;;;;;;;4.06;72.93;99827.19;5112320;28;20262;-64
2022/04/02 03:16:22;;;;;;;4.53;2.17;;;;;;;3.67;74.43;99827.72;5112185;28;20306;-64
2022/04/02 03:18:54;;;;;;;8.93;2.30;;;;;;;3.53;74.79;99831.41;5112353;28;20252;-64
2022/04/02 03:21:22;;;;;;;4.53;2.43;;;;;;;3.87;73.97;99829.59;5112920;28;20293;-64
2022/04/02 03:23:50;;;;;;;6.17;2.10;;;;;;;3.91;73.37;99828.41;5113118;28;20203;-64
2022/04/02 03:26:17;;;;;;;3.70;2.10;;;;;;;3.99;72.78;99836.50;5111633;28;20295;-64
2022/04/02 03:28:46;;;;;;;6.17;2.53;;;;;;;3.84;73.61;99829.88;5108526;28;20254;-64
2022/04/02 03:31:14;;;;;;;6.20;2.47;;;;;;;3.98;72.81;99841.88;5112331;28;20244;-64
2022/04/02 03:33:41;;;;;;;5.43;2.33;;;;;;;3.95;73.50;99836.91;5112675;28;20238;-64
2022/04/02 03:36:10;;;;;;;5.53;2.47;;;;;;;3.98;73.13;99842.72;5113297;28;20319;-64
2022/04/02 03:38:38;;;;;;;4.77;2.37;;;;;;;3.69;73.63;99834.50;5111251;28;20389;-64
2022/04/02 03:41:07;;;;;;;4.80;2.33;;;;;;;3.98;73.02;99837.47;5112604;28;20210;-64
2022/04/02 03:43:35;;;;;;;6.83;2.33;;;;;;;4.06;72.71;99834.22;5112714;28;20208;-70
2022/04/02 03:48:44;;;;;;;7.83;2.23;;;;;;;4.10;72.60;99851.41;5111092;28;20218;-64
2022/04/02 03:51:13;;;;;;;3.80;2.20;;;;;;;4.11;72.45;99838.19;5112371;27;20206;-64
2022/04/02 03:53:48;;;;;;;4.60;2.33;;;;;;;4.21;72.03;99851.41;5123151;27;20309;-64
2022/04/02 03:56:16;;;;;;;5.63;2.23;;;;;;;4.08;72.18;99843.66;5112372;28;20229;-64
2022/04/02 03:58:44;;;;;;;5.60;2.40;;;;;;;4.01;72.52;99847.72;5112786;27;20238;-63
2022/04/02 04:01:11;;;;;;;4.83;2.03;;;;;;;3.95;72.71;99853.47;5111793;28;20206;-63
2022/04/02 04:03:39;;;;;;;4.57;2.00;;;;;;;3.96;72.70;99860.34;5111905;28;20674;-64
2022/04/02 04:06:07;;;;;;;7.77;2.23;;;;;;;3.96;72.18;99856.94;5112229;28;20222;-64
2022/04/02 04:08:37;;;;;;;5.83;2.50;;;;;;;3.96;72.36;99865.59;5111019;28;20307;-64
2022/04/02 04:11:05;;;;;;;4.27;2.40;;;;;;;3.69;73.81;99862.53;5112258;28;20826;-64
2022/04/02 04:13:33;;;;;;;5.93;2.00;;;;;;;3.49;74.15;99876.34;5111827;28;20302;-64
2022/04/02 04:16:01;;;;;;;4.77;2.30;;;;;;;3.62;74.24;99871.81;5111844;28;20667;-64
2022/04/02 04:18:29;;;;;;;5.93;2.87;;;;;;;3.70;74.00;99866.81;5111013;28;20239;-64
2022/04/02 04:20:57;;;;;;;5.00;2.27;;;;;;;3.88;73.12;99880.28;5111231;28;20220;-64
2022/04/02 04:23:25;;;;;;;6.07;2.43;;;;;;;3.59;73.35;99883.38;5111588;28;20207;-64
2022/04/02 04:25:54;;;;;;;6.37;2.77;;;;;;;3.78;73.19;99869.69;5103428;28;20755;-64
2022/04/02 04:28:22;;;;;;;5.67;2.30;;;;;;;3.88;72.81;99883.72;5101519;28;20195;-63
2022/04/02 04:30:49;;;;;;;5.63;2.60;;;;;;;3.76;73.42;99884.72;5111169;28;20295;-63
2022/04/02 04:33:17;;;;;;;3.27;1.93;;;;;;;3.85;72.73;99889.25;5111652;28;20672;-63
2022/04/02 04:35:46;;;;;;;7.40;2.37;;;;;;;3.85;72.40;99894.47;5111005;28;20613;-64
2022/04/02 04:38:14;;;;;;;7.40;2.53;;;;;;;3.85;72.59;99886.63;5109883;27;20270;-65
2022/04/02 04:40:42;;;;;;;5.53;2.83;;;;;;;3.93;72.21;99892.09;5110773;28;20298;-64
2022/04/02 04:43:11;;;;;;;13.97;2.93;;;;;;;3.94;71.91;99892.94;5110868;28;20307;-64
2022/04/02 04:45:39;;;;;;;4.80;2.33;;;;;;;3.72;72.53;99899.00;5115260;27;20231;-64
2022/04/02 04:48:07;;;;;;;6.13;2.80;;;;;;;3.92;71.53;99900.91;5130958;27;20237;-63
2022/04/02 04:50:39;;;;;;;6.37;2.70;;;;;;;3.90;71.42;99904.59;5118763;27;20207;-64
2022/04/02 04:53:06;;;;;;;5.83;2.60;;;;;;;3.57;72.68;99908.03;5110454;28;20298;-64
2022/04/02 04:55:34;;;;;;;6.43;3.23;;;;;;;3.79;72.29;99905.44;5110863;28;20610;-64
2022/04/02 04:58:02;;;;;;;7.13;2.93;;;;;;;3.65;72.34;99914.38;5111885;27;20204;-64
2022/04/02 05:00:33;;;;;;;6.33;2.70;;;;;;;3.89;71.50;99908.16;5109393;28;20209;-64
2022/04/02 05:03:01;;;;;;;8.13;2.60;;;;;;;3.75;71.85;99914.50;5110797;28;20314;-64
2022/04/02 05:05:38;;;;;;;6.43;2.93;;;;;;;3.79;72.26;99915.91;5110985;28;20245;-63
2022/04/02 05:08:06;;;;;;;6.93;3.13;;;;;;;3.89;71.76;99927.38;5110661;28;20198;-64
2022/04/02 05:10:34;;;;;;;8.93;3.20;;;;;;;3.93;71.40;99923.56;5120352;27;20238;-64
2022/04/02 05:13:02;;;;;;;6.90;3.00;;;;;;;3.73;72.35;99934.75;5131331;27;20296;-64
2022/04/02 05:15:30;;;;;;;8.67;2.93;;;;;;;3.84;72.26;99928.69;5130440;27;20272;-65
2022/04/02 05:17:59;;;;;;;4.70;2.67;;;;;;;3.70;72.54;99929.72;5116306;27;20203;-64
2022/04/02 05:20:27;;;;;;;6.37;2.83;;;;;;;3.88;71.93;99936.19;5109153;28;20213;-64
2022/04/02 05:22:55;;;;;;;9.57;2.93;;;;;;;3.88;71.97;99935.34;5093872;28;20206;-63
2022/04/02 05:25:23;;;;;;;6.07;2.77;;;;;;;3.76;72.14;99938.00;5090410;28;20206;-64
2022/04/02 05:27:50;;;;;;;11.83;3.43;;;;;;;3.89;72.01;99942.28;5092294;28;20360;-64
2022/04/02 05:30:18;;;;;;;8.60;2.90;;;;;;;3.69;71.98;99946.44;5109689;28;20212;-63
2022/04/02 05:32:45;;;;;;;9.47;3.00;;;;;;;3.76;71.84;99955.50;5110419;28;20211;-64
2022/04/02 05:35:15;;;;;;;11.83;3.70;;;;;;;3.87;71.71;99950.25;5110913;28;20586;-64
2022/04/02 05:37:43;;;;;;;5.93;2.73;;;;;;;3.75;72.35;99954.66;5110090;28;20297;-64
2022/04/02 05:40:13;;;;;;;5.20;2.77;;;;;;;3.75;72.47;99966.94;5109143;28;20239;-64
2022/04/02 05:42:41;;;;;;;5.77;3.27;;;;;;;3.81;72.02;99965.63;5109702;28;20582;-64
2022/04/02 05:45:10;;;;;;;7.27;3.20;;;;;;;3.86;71.44;99964.34;5109923;28;20317;-64
2022/04/02 05:47:42;;;;;;;7.57;2.50;;;;;;;3.50;73.09;99961.91;5109899;28;20213;-64
2022/04/02 05:50:10;;;;;;;6.50;2.80;;;;;;;3.82;72.11;99975.19;5108418;28;20314;-64
2022/04/02 05:53:00;;;;;;;6.17;3.00;;;;;;;3.68;72.70;99978.84;5109728;28;20207;-64
2022/04/02 05:55:28;;;;;;;6.53;3.07;;;;;;;3.69;73.19;99980.53;5110329;28;20286;-64
2022/04/02 05:57:55;;;;;;;7.03;2.97;;;;;;;3.83;72.39;99989.97;5116782;27;20199;-65
2022/04/02 06:00:23;;;;;;;7.90;3.00;;;;;;;3.85;71.77;99991.53;5122400;27;20227;-65
2022/04/02 06:02:56;;;;;;;8.07;3.40;;;;;;;3.93;71.62;99991.78;5109554;28;20206;-63
2022/04/02 06:05:24;;;;;;;5.47;2.40;;;;;;;3.97;71.13;100008.09;5109670;28;20209;-64
2022/04/02 06:07:51;;;;;;;6.60;2.53;;;;;;;3.96;71.09;100002.00;5113599;27;20210;-65
2022/04/02 06:10:20;;;;;;;4.90;2.50;;;;;;;3.28;73.92;99994.94;5109612;28;20203;-63
2022/04/02 06:12:50;;;;;;;6.37;3.10;;;;;;;3.31;73.75;100007.81;5110265;28;20586;-64
2022/04/02 06:15:19;;;;;;;5.33;2.87;;;;;;;3.75;73.00;100008.91;5109419;28;20237;-65
2022/04/02 06:17:47;;;;;;;7.10;2.83;;;;;;;3.91;72.02;100016.44;5104874;28;20211;-64
2022/04/02 06:20:14;;;;;;;4.93;2.63;;;;;;;3.87;72.19;100017.66;5108197;28;20209;-65
2022/04/02 06:22:42;;;;;;;5.10;2.90;;;;;;;3.82;72.20;100033.72;5109009;28;20210;-64
2022/04/02 06:25:10;;;;;;;6.73;3.27;;;;;;;3.92;71.95;100020.75;5109187;28;20304;-65
2022/04/02 06:27:43;;;;;;;8.73;3.13;;;;;;;3.28;73.38;100034.25;5108673;28;20215;-64
2022/04/02 06:30:12;;;;;;;6.17;3.00;;;;;;;3.74;73.38;100038.69;5108792;28;20302;-64
2022/04/02 06:32:40;;;;;;;5.33;2.80;;;;;;;3.75;72.80;100029.88;5109454;28;20316;-64
2022/04/02 06:35:09;;;;;;;12.60;3.47;;;;;;;3.84;72.36;100044.94;5109994;28;20324;-64
2022/04/02 06:37:39;;;;;;;6.93;2.80;;;;;;;3.69;72.58;100046.91;5108353;28;20234;-63
2022/04/02 06:40:09;;;;;;;8.43;2.97;;;;;;;3.61;72.95;100044.00;5108752;28;20572;-64
2022/04/02 06:42:37;;;;;;;11.53;3.27;;;;;;;3.58;73.29;100044.25;5116995;28;20203;-63
2022/04/02 06:45:19;;;;;;;5.13;2.67;;;;;;;3.73;73.01;100047.50;5117000;28;20238;-63
2022/04/02 06:47:46;;;;;;;9.70;5.50;;;;;;;3.76;72.71;100057.78;5097344;28;20203;-65
2022/04/02 06:50:15;;;;;;;5.67;2.60;;;;;;;3.35;74.00;100056.41;5088636;28;20603;-65
2022/04/02 06:52:44;;;;;;;5.33;2.60;;;;;;;3.55;73.84;100062.00;5104729;28;20212;-65
2022/04/02 06:55:13;;;;;;;5.23;2.77;;;;;;;3.47;74.90;100059.09;5108972;28;20624;-66
2022/04/02 06:57:42;;;;;;;8.80;2.80;;;;;;;3.53;74.35;100051.63;5108846;28;20223;-66
2022/04/02 07:00:12;;;;;;;11.43;2.80;;;;;;;3.73;73.21;100064.09;5108074;28;20215;-63
2022/04/02 07:02:40;;;;;;;4.87;2.60;;;;;;;3.74;72.80;100063.13;5112871;28;20296;-65
2022/04/02 07:05:19;;;;;;;4.50;2.60;;;;;;;3.47;73.96;100075.66;5112593;28;20258;-64
2022/04/02 07:07:47;;;;;;;9.00;3.40;;;;;;;3.77;72.39;100064.72;5111770;28;20289;-64
2022/04/02 07:10:15;;;;;;;5.43;2.50;;;;;;;3.82;72.20;100080.09;5111798;28;20269;-64
2022/04/02 07:12:44;;;;;;;9.13;3.27;;;;;;;3.91;72.08;100082.03;5111948;28;20665;-64
2022/04/02 07:15:14;;;;;;;5.97;2.80;;;;;;;3.92;71.44;100081.91;5092810;28;20254;-65
2022/04/02 07:17:42;;;;;;;5.40;2.60;;;;;;;3.78;71.56;100076.88;5103315;28;20208;-65
2022/04/02 07:20:13;;;;;;;7.40;2.43;;;;;;;3.94;71.36;100087.03;5111825;28;20989;-65
2022/04/02 07:22:41;;;;;;;9.57;3.03;;;;;;;3.93;71.34;100091.47;5112436;28;20217;-64
2022/04/02 07:25:10;;;;;;;6.10;2.63;;;;;;;3.60;71.81;100093.97;5111794;28;20206;-63
2022/04/02 07:27:40;;;;;;;5.63;2.63;;;;;;;3.83;71.98;100084.38;5110771;28;20216;-64
2022/04/02 07:30:10;;;;;;;5.27;2.70;;;;;;;3.69;72.39;100106.41;5112026;28;20206;-64
2022/04/02 07:32:39;;;;;;;6.43;2.87;;;;;;;3.65;70.95;100105.78;5111927;28;20279;-64
2022/04/02 07:35:10;;;;;;;6.60;3.27;;;;;;;3.91;71.34;100109.09;5114162;27;20233;-62
2022/04/02 07:37:49;;;;;;;5.43;3.03;;;;;;;4.01;70.88;100102.22;5124421;27;20325;-63
2022/04/02 07:40:19;;;;;;;4.63;2.40;;;;;;;3.89;71.09;100112.78;5131872;27;20212;-64
2022/04/02 07:43:05;;;;;;;3.53;2.13;;;;;;;3.99;70.62;100111.97;5122855;27;20290;-64
2022/04/02 07:45:39;;;;;;;7.30;3.10;;;;;;;4.05;71.03;100116.75;5112244;28;20580;-64
2022/04/02 07:48:11;;;;;;;8.73;3.77;;;;;;;3.90;70.99;100128.41;5111743;28;20709;-65
2022/04/02 07:50:43;;;;;;;4.97;2.60;;;;;;;4.04;70.46;100130.00;5112110;28;20231;-66
2022/04/02 07:53:19;;;;;;;5.47;2.70;;;;;;;4.23;69.11;100134.69;5112395;28;20211;-67
2022/04/02 07:55:52;;;;;;;7.90;3.00;;;;;;;4.13;70.10;100137.19;5112043;28;20215;-66
2022/04/02 07:58:37;;;;;;;;;;;;;;;;;;;;;
2022/04/02 08:01:07;;;;;;;4.40;2.60;;;;;;;4.08;70.57;100137.53;5112408;28;20263;-65
2022/04/02 08:03:37;;;;;;;4.80;2.70;;;;;;;4.22;69.88;100148.78;5112960;28;20812;-66
2022/04/02 08:06:06;;;;;;;6.50;2.93;;;;;;;4.21;69.92;100149.75;5113683;27;20226;-65
2022/04/02 08:08:35;;;;;;;4.30;2.50;;;;;;;4.28;69.23;100150.94;5122554;27;20205;-64
2022/04/02 08:11:03;;;;;;;4.33;2.70;;;;;;;3.98;69.97;100162.75;5103131;28;20232;-65
2022/04/02 08:13:33;;;;;;;6.37;2.63;;;;;;;4.23;69.98;100155.69;5103931;28;20503;-65
2022/04/02 08:16:01;;;;;;;5.30;2.73;;;;;;;4.36;69.75;100159.91;5111769;28;20246;-66
2022/04/02 08:18:29;;;;;;;5.57;2.80;;;;;;;4.46;69.78;100158.25;5110639;28;20675;-65
2022/04/02 08:20:58;;;;;;;7.37;3.20;;;;;;;4.50;69.20;100162.31;5113413;27;20250;-65
2022/04/02 08:23:26;;;;;;;5.83;2.90;;;;;;;4.55;69.05;100169.84;5103538;28;20485;-67
2022/04/02 08:26:07;;;;;;;7.47;2.97;;;;;;;4.20;70.07;100171.69;5111593;28;20633;-66
2022/04/02 08:28:50;;;;;;;6.10;2.47;;;;;;;4.48;69.36;100181.78;5101772;28;20208;-66
2022/04/02 08:31:29;;;;;;;4.77;2.30;;;;;;;4.29;69.22;100179.69;5091207;28;20232;-65
2022/04/02 08:34:08;;;;;;;5.80;2.60;;;;;;;3.90;71.67;100188.72;5091746;28;20244;-66
2022/04/02 08:37:02;;;;;;;5.27;2.30;;;;;;;4.13;70.05;100182.59;5090840;28;20234;-65
2022/04/02 08:39:36;;;;;;;5.17;2.90;;;;;;;4.30;69.89;100184.00;5090260;28;20228;-65
2022/04/02 08:42:37;;;;;;;7.73;2.60;;;;;;;3.95;70.39;100194.50;5090107;28;20193;-65
2022/04/02 08:45:08;;;;;;;8.87;3.00;;;;;;;4.29;70.51;100208.56;5090937;28;20452;-65
2022/04/02 08:48:15;;;;;;;9.93;3.37;;;;;;;4.18;70.54;100199.81;5090505;28;20240;-64
2022/04/02 08:50:46;;;;;;;9.73;3.13;;;;;;;4.40;70.42;100207.75;5098045;28;20216;-65
2022/04/02 08:53:33;;;;;;;5.47;3.13;;;;;;;4.08;71.23;100205.75;5090339;28;20209;-66
2022/04/02 08:56:06;;;;;;;7.70;3.00;;;;;;;3.70;71.59;100210.31;5092206;28;20231;-64
2022/04/02 08:58:56;;;;;;;6.77;3.43;;;;;;;4.23;70.42;100213.41;5089493;28;20216;-66
2022/04/02 09:01:27;;;;;;;6.80;2.80;;;;;;;4.23;70.43;100216.03;5110146;28;20284;-64
2022/04/02 09:04:43;;;;;;;7.70;3.40;;;;;;;4.26;70.13;100224.53;5110551;28;20214;-64
2022/04/02 09:07:47;;;;;;;6.60;2.87;;;;;;;3.87;72.51;100228.28;5026383;28;20221;-64
2022/04/02 09:10:44;;;;;;;8.07;2.80;;;;;;;4.16;71.51;100231.41;5024493;28;20301;-65
2022/04/02 09:13:39;;;;;;;6.17;3.33;;;;;;;4.43;71.20;100231.16;5039925;28;20216;-65
2022/04/02 09:16:10;;;;;;;5.23;2.87;;;;;;;3.58;72.46;100237.44;5089655;28;20369;-65
2022/04/02 09:18:48;;;;;;;6.93;3.10;;;;;;;4.00;72.31;100247.47;5089118;28;20664;-65
2022/04/02 09:21:29;;;;;;;8.20;3.80;;;;;;;4.37;70.48;100242.13;5089448;28;20204;-65
2022/04/02 09:24:25;;;;;;;7.87;3.07;;;;;;;4.55;70.24;100235.50;5088564;28;20215;-64
2022/04/02 09:27:20;;;;;;;5.53;2.93;;;;;;;4.62;70.12;100246.38;5089124;28;20237;-63
2022/04/02 09:30:12;;;;;;;6.60;3.30;;;;;;;4.57;69.42;100254.63;5069332;28;20563;-65
2022/04/02 09:33:07;;;;;;;5.87;3.10;;;;;;;4.47;69.46;100251.00;5068669;28;20307;-65
2022/04/02 09:35:57;;;;;;;5.63;3.03;;;;;;;4.88;68.48;100253.94;5080402;28;20574;-65
2022/04/02 09:38:58;;;;;;;8.13;2.93;;;;;;;4.75;68.69;100253.19;5089161;28;20237;-66
2022/04/02 09:41:36;;;;;;;8.00;3.17;;;;;;;4.78;69.11;100255.59;5130509;27;20207;-66
2022/04/02 09:44:27;;;;;;;6.80;2.93;;;;;;;3.68;70.61;100257.66;5130869;27;20192;-66
2022/04/02 09:47:02;;;;;;;7.80;3.27;;;;;;;4.62;68.33;100268.22;5131243;27;20559;-64
2022/04/02 09:49:36;;;;;;;8.97;3.40;;;;;;;4.64;68.21;100271.59;5119240;27;20208;-66
2022/04/02 09:52:06;;;;;;;7.83;3.80;;;;;;;4.78;67.17;100267.91;5109561;28;20688;-65
2022/04/02 09:54:38;;;;;;;9.53;3.53;;;;;;;5.00;66.61;100267.13;5109968;28;20222;-65
2022/04/02 09:57:19;;;;;;;6.73;2.93;;;;;;;4.90;67.01;100272.25;5124131;27;20218;-67
2022/04/02 10:00:01;;;;;;;5.60;3.37;;;;;;;5.07;67.27;100274.41;5116770;28;20217;-64
2022/04/02 10:03:00;;;;;;;6.27;2.90;;;;;;;5.14;66.22;100277.41;5116675;27;20297;-64
2022/04/02 10:05:43;;;;;;;6.40;3.37;;;;;;;4.73;67.64;100281.41;5097340;28;20293;-64
2022/04/02 10:08:19;;;;;;;7.53;3.63;;;;;;;5.33;66.59;100282.91;5093942;28;20189;-64
2022/04/02 10:10:50;;;;;;;9.93;3.77;;;;;;;5.44;67.18;100272.41;5108881;28;20312;-64
2022/04/02 10:13:25;;;;;;;9.67;3.23;;;;;;;5.43;66.63;100275.97;5109483;28;20277;-64
2022/04/02 10:15:55;;;;;;;9.17;3.50;;;;;;;5.74;66.07;100266.50;5109203;28;20213;-64
2022/04/02 10:18:26;;;;;;;7.03;3.30;;;;;;;6.52;63.20;100281.25;5108649;28;20324;-64
2022/04/02 10:20:54;;;;;;;6.63;3.87;;;;;;;5.91;64.86;100275.69;5108973;28;20684;-63
2022/04/02 10:23:24;;;;;;;8.33;3.80;;;;;;;6.14;64.18;100277.34;5109410;28;20696;-63
2022/04/02 10:26:09;;;;;;;8.00;3.27;;;;;;;6.08;63.20;100284.88;5109381;28;20194;-63
2022/04/02 10:28:49;;;;;;;10.67;3.43;;;;;;;5.48;64.42;100284.34;5098950;28;20195;-63
2022/04/02 10:31:35;;;;;;;8.83;3.70;;;;;;;5.62;64.19;100286.75;5103483;28;20583;-64
2022/04/02 10:34:11;;;;;;;6.43;3.47;;;;;;;5.67;63.80;100289.84;5109155;28;20232;-64
2022/04/02 10:36:49;;;;;;;6.20;3.47;;;;;;;5.80;63.48;100288.88;5113613;28;20304;-64
2022/04/02 10:39:22;;;;;;;6.47;3.90;;;;;;;5.76;63.54;100287.41;5111708;28;20244;-65
2022/04/02 10:41:55;;;;;;;6.13;3.67;;;;;;;5.74;63.36;100292.81;5113039;28;20205;-65
2022/04/02 10:44:45;;;;;;;6.30;3.60;;;;;;;5.98;62.50;100290.88;5112191;28;20189;-65
2022/04/02 10:47:16;;;;;;;8.97;4.17;;;;;;;5.92;62.74;100290.53;5113147;27;20198;-64
2022/04/02 10:49:49;;;;;;;9.13;4.43;;;;;;;5.63;63.19;100293.66;5111692;28;20212;-63
2022/04/02 10:52:19;;;;;;;9.40;4.27;;;;;;;5.86;63.25;100294.47;5112757;28;20217;-63
2022/04/02 10:54:50;;;;;;;8.57;4.43;;;;;;;6.00;62.09;100296.03;5112252;28;20221;-64
2022/04/02 10:57:18;;;;;;;11.17;4.13;;;;;;;6.03;59.85;100290.53;5112725;28;20301;-64
2022/04/02 10:59:48;;;;;;;7.53;4.47;;;;;;;5.89;59.50;100283.72;5100663;28;20302;-63
2022/04/02 11:02:23;;;;;;;9.37;4.33;;;;;;;5.97;59.17;100285.75;5092405;28;20466;-63
2022/04/02 11:05:03;;;;;;;8.50;4.33;;;;;;;5.59;59.21;100286.97;5092784;28;20690;-64
2022/04/02 11:07:35;;;;;;;6.17;4.30;;;;;;;5.58;59.39;100293.19;5099050;27;20252;-64
2022/04/02 11:10:03;;;;;;;7.27;4.43;;;;;;;5.74;59.57;100294.59;5108968;28;20233;-65
2022/04/02 11:12:33;;;;;;;8.77;4.47;;;;;;;6.04;59.07;100297.47;5112304;28;20354;-64
2022/04/02 11:15:13;;;;;;;7.03;4.27;;;;;;;6.05;58.14;100296.50;5112258;28;20214;-64
2022/04/02 11:17:42;;;;;;;7.87;4.20;;;;;;;5.75;57.18;100301.53;5112295;28;20675;-65
2022/04/02 11:20:17;;;;;;;16.50;4.73;;;;;;;5.41;57.73;100298.94;5112182;28;20208;-65
2022/04/02 11:23:07;;;;;;;9.10;4.37;;;;;;;5.79;58.29;100303.81;5112110;28;20216;-63
2022/04/02 11:25:43;;;;;;;7.13;4.20;;;;;;;5.73;57.20;100311.34;5111847;28;20210;-64
2022/04/02 11:28:13;;;;;;;9.53;4.30;;;;;;;6.29;56.00;100315.56;5112749;28;20719;-65
2022/04/02 11:30:43;;;;;;;10.23;3.90;;;;;;;5.71;56.72;100315.91;5111455;28;20207;-66
2022/04/02 11:33:15;;;;;;;10.60;3.90;;;;;;;5.51;58.23;100315.66;5111762;28;20206;-64
2022/04/02 11:35:51;;;;;;;8.37;3.50;;;;;;;5.89;57.56;100319.75;5112248;28;20220;-64
2022/04/02 11:38:34;;;;;;;8.60;4.30;;;;;;;6.23;57.11;100318.72;5111762;28;20328;-63
2022/04/02 11:41:09;;;;;;;6.90;3.67;;;;;;;5.86;55.90;100315.53;5111156;28;20210;-64
2022/04/02 11:43:42;;;;;;;6.93;4.20;;;;;;;5.53;57.22;100321.66;5112057;28;20190;-65
2022/04/02 11:46:19;;;;;;;10.77;4.03;;;;;;;5.68;55.64;100317.81;5110955;28;20202;-64
2022/04/02 11:48:52;;;;;;;7.07;3.70;;;;;;;5.79;55.48;100316.13;5110674;28;20203;-64
2022/04/02 11:51:23;;;;;;;9.30;4.43;;;;;;;5.84;56.80;100324.50;5113372;27;20229;-65
2022/04/02 11:53:52;;;;;;;10.73;3.87;;;;;;;5.80;55.90;100337.06;5111935;28;20704;-65
2022/04/02 11:56:30;;;;;;;6.80;3.90;;;;;;;5.42;56.41;100326.91;5106702;27;20738;-64
2022/04/02 11:59:00;;;;;;;7.13;4.13;;;;;;;5.45;55.60;100331.09;5097143;28;20226;-64
2022/04/02 12:01:40;;;;;;;11.97;4.67;;;;;;;5.50;56.21;100328.94;5111145;27;20655;-64
2022/04/02 12:04:12;;;;;;;7.83;4.13;;;;;;;5.77;55.68;100328.56;5111922;28;20186;-65
2022/04/02 12:06:42;;;;;;;7.33;4.23;;;;;;;5.49;56.18;100322.84;5111489;28;20651;-65
2022/04/02 12:09:16;;;;;;;6.63;4.10;;;;;;;5.66;55.78;100332.88;5111155;28;20198;-64